Time;durP1;ratioP1;P1;durP2;ratioP2;P2;SDS_P1;SDS_P2;PMS_P1;PMS_P2;Temp;Humidity;BMP_temperature;BMP_pressure;BME280_temperature;BME280_humidity;BME280_pressure;Samples;Min_cycle;Max_cycle;Signal;HPM_P1;HPM_P2
2023/02/11 00:00:11;;;;;;;24.90;9.17;;;;;;;-3.44;96.63;98199.94;5056874;28;20213;-67
2023/02/11 00:02:37;;;;;;;30.90;10.93;;;;;;;-3.40;96.57;98198.94;5056084;28;20221;-68
2023/02/11 00:05:05;;;;;;;25.77;11.20;;;;;;;-3.30;98.12;98206.34;5056740;28;20600;-67
2023/02/11 00:07:33;;;;;;;25.27;8.40;;;;;;;-3.28;98.13;98204.59;5056624;28;20211;-68
2023/02/11 00:10:01;;;;;;;26.37;9.67;;;;;;;-3.19;97.30;98204.31;5056766;28;20234;-68
2023/02/11 00:12:29;;;;;;;19.83;8.43;;;;;;;-3.13;96.33;98203.25;5057887;28;20276;-67
2023/02/11 00:14:55;;;;;;;27.60;9.23;;;;;;;-3.19;95.69;98203.47;5056389;28;20226;-68
2023/02/11 00:17:22;;;;;;;29.03;10.47;;;;;;;-3.24;96.29;98205.34;5056360;28;20216;-67
2023/02/11 00:19:49;;;;;;;23.97;9.10;;;;;;;-3.19;96.41;98206.88;5056758;28;20220;-67
2023/02/11 00:22:16;;;;;;;21.20;8.80;;;;;;;-3.28;95.41;98209.72;5056985;28;20230;-67
2023/02/11 00:24:42;;;;;;;29.63;11.23;;;;;;;-3.32;96.31;98208.16;5055851;28;20214;-68
2023/02/11 00:27:10;;;;;;;30.60;10.73;;;;;;;-3.21;95.64;98211.22;5056783;28;20211;-67
2023/02/11 00:29:37;;;;;;;23.67;10.77;;;;;;;-3.23;95.93;98222.47;5056607;28;20233;-67
2023/02/11 00:32:05;;;;;;;26.37;9.63;;;;;;;-3.22;97.82;98219.88;5056825;28;20227;-67
2023/02/11 00:34:31;;;;;;;32.20;9.87;;;;;;;-3.20;99.10;98218.06;5055693;28;20197;-68
2023/02/11 00:36:58;;;;;;;23.57;9.80;;;;;;;-3.19;99.60;98214.59;5056521;28;20694;-68
2023/02/11 00:39:25;;;;;;;39.47;11.13;;;;;;;-3.13;99.33;98211.84;5057035;28;20374;-67
2023/02/11 00:41:51;;;;;;;30.43;11.77;;;;;;;-3.13;98.56;98216.16;5056522;28;20229;-67
2023/02/11 00:44:20;;;;;;;29.63;11.57;;;;;;;-3.23;97.12;98213.03;5056087;28;20236;-68
2023/02/11 00:46:46;;;;;;;32.57;10.30;;;;;;;-3.34;98.76;98204.75;5056291;28;20211;-67
2023/02/11 00:49:13;;;;;;;28.70;12.53;;;;;;;-3.33;99.91;98206.44;5056744;28;20230;-68
2023/02/11 00:51:39;;;;;;;31.90;12.03;;;;;;;-3.33;100.00;98206.44;5056747;28;20234;-67
2023/02/11 00:54:06;;;;;;;29.37;11.10;;;;;;;-3.32;99.13;98210.72;5056152;28;20221;-68
2023/02/11 00:56:33;;;;;;;34.20;12.30;;;;;;;-3.37;98.79;98214.34;5055972;28;20670;-68
2023/02/11 00:58:59;;;;;;;33.80;11.40;;;;;;;-3.40;98.64;98215.28;5056748;28;20209;-68
2023/02/11 01:01:27;;;;;;;32.33;11.50;;;;;;;-3.23;99.09;98223.34;5056425;28;20220;-68
2023/02/11 01:03:53;;;;;;;26.43;11.23;;;;;;;-3.31;100.00;98220.16;5055249;28;20237;-68
2023/02/11 01:06:20;;;;;;;36.27;11.13;;;;;;;-3.35;100.00;98218.53;5056297;28;20348;-68
2023/02/11 01:08:46;;;;;;;25.53;10.80;;;;;;;-3.33;100.00;98226.25;5056464;28;20585;-68
2023/02/11 01:11:15;;;;;;;30.90;9.67;;;;;;;-3.40;99.51;98220.44;5055755;28;20612;-67
2023/02/11 01:13:42;;;;;;;33.93;12.37;;;;;;;-3.54;99.20;98225.13;5055505;28;20202;-68
2023/02/11 01:16:10;;;;;;;25.83;11.53;;;;;;;-3.47;100.00;98224.06;5056482;28;20663;-68
2023/02/11 01:18:38;;;;;;;31.63;12.43;;;;;;;-3.39;100.00;98218.69;5055925;28;20220;-68
2023/02/11 01:21:06;;;;;;;31.37;12.33;;;;;;;-3.31;100.00;98220.16;5056309;28;20218;-68
2023/02/11 01:23:33;;;;;;;28.90;10.50;;;;;;;-3.33;99.76;98211.59;5055814;28;20274;-67
2023/02/11 01:25:59;;;;;;;39.37;11.50;;;;;;;-3.52;98.19;98218.19;5055895;28;20217;-68
2023/02/11 01:28:29;;;;;;;25.87;11.10;;;;;;;-3.39;98.23;98211.78;5055895;28;20219;-68
2023/02/11 01:30:56;;;;;;;35.87;11.10;;;;;;;-3.49;98.44;98210.41;5056714;28;20701;-68
2023/02/11 01:33:23;;;;;;;35.03;12.67;;;;;;;-3.62;98.50;98203.88;5056030;28;20384;-67
2023/02/11 01:35:51;;;;;;;28.80;10.97;;;;;;;-3.58;98.76;98195.22;5055552;28;20202;-67
2023/02/11 01:38:20;;;;;;;27.30;11.37;;;;;;;-3.66;99.70;98195.47;5056527;28;20206;-68
2023/02/11 01:40:47;;;;;;;32.70;11.87;;;;;;;-3.63;99.26;98187.66;5056186;28;20744;-67
2023/02/11 01:43:14;;;;;;;28.77;11.67;;;;;;;-3.63;98.05;98183.31;5055923;28;20204;-67
2023/02/11 01:46:14;;;;;;;31.50;11.00;;;;;;;-3.56;95.89;98180.53;5057461;28;20213;-67
2023/02/11 01:48:43;;;;;;;22.23;9.73;;;;;;;-3.58;97.01;98174.59;5059630;28;20204;-68
2023/02/11 01:51:16;;;;;;;22.80;10.00;;;;;;;-3.59;97.56;98175.47;5059047;28;20237;-67
2023/02/11 01:59:20;;;;;;;25.87;10.53;;;;;;;-3.40;99.98;98157.72;5059498;28;20221;-67
2023/02/11 02:01:51;;;;;;;34.10;11.90;;;;;;;-3.39;100.00;98149.94;5059512;28;20222;-68
2023/02/11 02:04:19;;;;;;;21.37;9.63;;;;;;;-3.35;100.00;98140.38;5062765;28;20206;-67
2023/02/11 02:06:51;;;;;;;20.93;9.13;;;;;;;-3.25;100.00;98136.63;5061736;28;20270;-68
2023/02/11 02:09:22;;;;;;;27.50;9.10;;;;;;;-3.17;100.00;98142.38;5059654;28;20197;-68
2023/02/11 02:11:49;;;;;;;28.37;10.20;;;;;;;-3.19;100.00;98126.97;5059276;28;21546;-68
2023/02/11 02:14:16;;;;;;;23.90;9.47;;;;;;;-3.16;100.00;98124.28;5059073;28;20204;-68
2023/02/11 02:16:42;;;;;;;23.37;10.03;;;;;;;-3.13;100.00;98121.63;5059446;28;20215;-68
2023/02/11 02:19:31;;;;;;;34.00;11.07;;;;;;;-3.01;100.00;98118.63;5058942;28;20212;-67
2023/02/11 02:22:24;;;;;;;27.93;10.00;;;;;;;-2.89;100.00;98107.91;5059189;28;20225;-68
2023/02/11 02:24:59;;;;;;;32.53;12.67;;;;;;;-2.82;100.00;98099.06;5056757;28;20202;-68
2023/02/11 02:27:37;;;;;;;33.93;13.33;;;;;;;-2.71;100.00;98099.53;5058994;28;20209;-68
2023/02/11 02:30:42;;;;;;;28.37;10.97;;;;;;;-2.58;100.00;98096.50;5059136;28;20229;-67
2023/02/11 02:33:29;;;;;;;30.50;11.73;;;;;;;-2.55;100.00;98086.06;5043581;28;20212;-68
2023/02/11 02:36:06;;;;;;;33.70;11.53;;;;;;;-2.59;100.00;98088.81;5058750;28;20215;-67
2023/02/11 02:38:37;;;;;;;25.53;9.37;;;;;;;-2.60;100.00;98092.28;5058464;28;20677;-67
2023/02/11 02:41:08;;;;;;;27.70;11.13;;;;;;;-2.57;100.00;98097.31;5059120;28;20229;-68
2023/02/11 02:43:37;;;;;;;26.93;11.10;;;;;;;-2.49;100.00;98105.66;5058628;28;20203;-68
2023/02/11 02:46:15;;;;;;;28.13;10.40;;;;;;;-2.44;100.00;98103.75;5058738;28;20205;-68
2023/02/11 02:48:44;;;;;;;40.87;12.47;;;;;;;-2.46;100.00;98108.13;5058621;28;20804;-68
2023/02/11 02:51:25;;;;;;;29.23;12.03;;;;;;;-2.44;100.00;98104.59;5058060;28;20738;-68
2023/02/11 02:54:05;;;;;;;42.03;11.83;;;;;;;-2.50;100.00;98111.72;5058150;28;20205;-68
2023/02/11 02:56:41;;;;;;;41.63;12.63;;;;;;;-2.62;100.00;98114.69;5059261;28;20203;-67
2023/02/11 02:59:19;;;;;;;36.17;12.50;;;;;;;-2.68;100.00;98114.94;5058288;28;20206;-67
2023/02/11 03:01:55;;;;;;;28.07;10.87;;;;;;;-2.59;100.00;98112.88;5057955;28;20231;-67
2023/02/11 03:04:31;;;;;;;26.50;11.27;;;;;;;-2.53;100.00;98111.81;5058583;28;20226;-67
2023/02/11 03:07:03;;;;;;;27.57;11.03;;;;;;;-2.56;100.00;98109.34;5058283;28;20255;-68
2023/02/11 03:09:34;;;;;;;29.70;10.47;;;;;;;-2.58;100.00;98111.97;5058897;28;20209;-68
2023/02/11 03:12:03;;;;;;;27.00;10.50;;;;;;;-2.81;100.00;98099.03;5058138;28;20621;-67
2023/02/11 03:14:31;;;;;;;30.77;11.90;;;;;;;-2.81;100.00;98098.19;5057448;28;20202;-68
2023/02/11 03:17:03;;;;;;;27.83;8.90;;;;;;;-2.90;100.00;98101.09;5057999;28;20219;-67
2023/02/11 03:19:36;;;;;;;27.53;10.27;;;;;;;-2.84;100.00;98106.00;5058042;28;20215;-68
2023/02/11 03:22:07;;;;;;;37.33;12.60;;;;;;;-2.89;100.00;98100.16;5057634;28;20232;-67
2023/02/11 03:24:36;;;;;;;28.13;10.93;;;;;;;-2.83;100.00;98098.22;5055541;28;21144;-67
2023/02/11 03:27:09;;;;;;;33.63;12.03;;;;;;;-2.81;100.00;98093.88;5057901;28;20209;-67
2023/02/11 03:29:40;;;;;;;35.10;10.87;;;;;;;-2.75;100.00;98090.22;5057762;28;20964;-68
2023/02/11 03:32:14;;;;;;;28.00;10.13;;;;;;;-2.75;100.00;98092.81;5057387;28;20227;-67
2023/02/11 03:34:47;;;;;;;29.37;10.87;;;;;;;-2.67;100.00;98088.22;5057742;28;20204;-68
2023/02/11 03:37:18;;;;;;;40.27;13.37;;;;;;;-2.67;100.00;98093.38;5057776;28;20512;-67
2023/02/11 03:39:50;;;;;;;23.40;9.97;;;;;;;-2.62;100.00;98094.91;5057818;28;20423;-67
2023/02/11 03:42:18;;;;;;;24.93;11.90;;;;;;;-2.68;100.00;98095.13;5057342;28;20234;-68
2023/02/11 03:44:50;;;;;;;29.90;10.87;;;;;;;-2.59;100.00;98088.81;5056546;28;20698;-67
2023/02/11 03:47:20;;;;;;;27.37;11.33;;;;;;;-2.51;100.00;98086.78;5057464;28;20210;-67
2023/02/11 03:49:52;;;;;;;37.30;12.07;;;;;;;-2.43;100.00;98095.09;5057516;28;20214;-68
2023/02/11 03:52:21;;;;;;;30.70;12.10;;;;;;;-2.52;100.00;98100.59;5057806;28;20234;-68
2023/02/11 03:54:51;;;;;;;31.80;11.40;;;;;;;-2.43;100.00;98088.22;5056708;28;20209;-68
2023/02/11 03:57:18;;;;;;;33.50;11.97;;;;;;;-2.46;100.00;98090.06;5057748;28;20203;-68
2023/02/11 03:59:51;;;;;;;24.07;11.83;;;;;;;-2.29;100.00;98093.72;5057272;28;20626;-68
2023/02/11 04:02:18;;;;;;;29.53;11.03;;;;;;;-2.38;100.00;98094.91;5057368;28;20227;-68
2023/02/11 04:04:45;;;;;;;30.87;11.10;;;;;;;-2.37;100.00;98100.88;5057048;28;20206;-67
2023/02/11 04:07:13;;;;;;;37.10;11.80;;;;;;;-2.29;100.00;98098.88;5056068;28;20211;-68
2023/02/11 04:09:40;;;;;;;26.67;10.43;;;;;;;-2.33;100.00;98100.75;5056933;28;20211;-67
2023/02/11 04:12:07;;;;;;;36.37;12.03;;;;;;;-2.34;100.00;98103.38;5057116;28;20876;-68
2023/02/11 04:14:33;;;;;;;33.07;13.07;;;;;;;-2.31;100.00;98117.00;5056731;28;20199;-68
2023/02/11 04:17:00;;;;;;;34.10;13.10;;;;;;;-2.26;100.00;98122.84;5056552;28;20201;-68
2023/02/11 04:19:26;;;;;;;27.30;12.87;;;;;;;-2.29;100.00;98120.38;5057064;28;20648;-68
2023/02/11 04:21:53;;;;;;;26.63;12.03;;;;;;;-2.22;100.00;98127.00;5056706;28;20227;-68
2023/02/11 04:24:21;;;;;;;32.40;11.67;;;;;;;-2.13;100.00;98131.00;5056181;28;20694;-68
2023/02/11 04:26:47;;;;;;;30.37;11.80;;;;;;;-2.26;100.00;98130.59;5057047;28;20217;-67
2023/02/11 04:29:14;;;;;;;31.87;12.00;;;;;;;-2.18;100.00;98140.66;5056975;28;20208;-68
2023/02/11 04:31:40;;;;;;;48.03;12.87;;;;;;;-2.17;100.00;98132.84;5056677;28;20307;-68
2023/02/11 04:34:07;;;;;;;32.57;11.80;;;;;;;-2.21;100.00;98130.44;5056100;28;20204;-68
2023/02/11 04:36:33;;;;;;;35.93;12.23;;;;;;;-2.32;100.00;98130.84;5056963;28;20204;-68
2023/02/11 04:38:59;;;;;;;30.63;11.13;;;;;;;-2.27;100.00;98126.31;5056437;28;20215;-68
2023/02/11 04:41:27;;;;;;;32.40;12.30;;;;;;;-2.14;100.00;98129.31;5056447;28;20212;-68
2023/02/11 04:43:54;;;;;;;32.20;12.20;;;;;;;-2.23;100.00;98125.34;5056054;28;20209;-68
2023/02/11 04:46:20;;;;;;;29.03;11.70;;;;;;;-2.26;100.00;98132.34;5057225;28;20205;-68
2023/02/11 04:48:46;;;;;;;30.33;12.83;;;;;;;-2.17;100.00;98135.44;5056665;28;20212;-68
2023/02/11 04:51:13;;;;;;;29.20;11.30;;;;;;;-2.12;100.00;98128.38;5056817;28;20225;-68
2023/02/11 04:53:40;;;;;;;34.40;13.17;;;;;;;-2.05;100.00;98128.97;5055783;28;20210;-67
2023/02/11 04:56:06;;;;;;;34.87;12.67;;;;;;;-1.99;100.00;98119.25;5056540;28;20227;-68
2023/02/11 04:58:34;;;;;;;35.03;12.23;;;;;;;-1.84;100.00;98110.13;5056938;28;20204;-68
2023/02/11 05:01:06;;;;;;;29.87;11.73;;;;;;;-1.83;100.00;98117.81;5056878;28;20231;-68
2023/02/11 05:03:32;;;;;;;34.57;13.27;;;;;;;-1.95;100.00;98120.84;5056404;28;20402;-68
2023/02/11 05:05:59;;;;;;;30.77;13.10;;;;;;;-1.87;100.00;98118.84;5056245;28;20218;-68
2023/02/11 05:08:25;;;;;;;40.20;12.97;;;;;;;-1.69;100.00;98131.88;5056487;28;20219;-68
2023/02/11 05:10:52;;;;;;;39.13;13.73;;;;;;;-1.58;100.00;98126.31;5056390;28;20234;-68
2023/02/11 05:13:18;;;;;;;38.57;12.30;;;;;;;-1.47;100.00;98113.81;5056184;28;20197;-68
2023/02/11 05:15:46;;;;;;;31.07;12.93;;;;;;;-1.33;100.00;98114.13;5056550;28;20200;-67
2023/02/11 05:18:13;;;;;;;36.77;13.93;;;;;;;-1.29;100.00;98118.28;5055809;28;20200;-68
2023/02/11 05:20:40;;;;;;;34.83;12.77;;;;;;;-1.27;100.00;98106.13;5058300;28;20227;-68
2023/02/11 05:23:06;;;;;;;44.53;14.47;;;;;;;-1.21;100.00;98111.88;5060441;28;20844;-68
2023/02/11 05:25:33;;;;;;;41.53;14.47;;;;;;;-1.20;100.00;98109.25;5059980;28;20202;-68
2023/02/11 05:27:59;;;;;;;37.40;14.50;;;;;;;-1.18;100.00;98107.44;5060258;28;20209;-68
2023/02/11 05:30:26;;;;;;;37.20;15.20;;;;;;;-1.17;100.00;98092.78;5060197;28;20212;-68
2023/02/11 05:32:54;;;;;;;37.23;13.43;;;;;;;-1.09;100.00;98091.53;5060320;28;20204;-68
2023/02/11 05:35:20;;;;;;;31.07;13.77;;;;;;;-1.10;100.00;98099.38;5059508;28;20210;-68
2023/02/11 05:37:47;;;;;;;30.50;12.80;;;;;;;-1.09;100.00;98101.06;5060035;28;20201;-68
2023/02/11 05:40:13;;;;;;;37.17;13.83;;;;;;;-1.00;100.00;98085.16;5060388;28;20204;-68
2023/02/11 05:42:40;;;;;;;33.70;12.13;;;;;;;-1.06;100.00;98075.94;5059827;28;20203;-68
2023/02/11 05:45:07;;;;;;;37.43;15.20;;;;;;;-1.03;100.00;98069.75;5059272;28;20219;-68
2023/02/11 05:47:33;;;;;;;38.90;14.13;;;;;;;-1.07;100.00;98063.88;5059897;28;20207;-68
2023/02/11 05:50:01;;;;;;;36.43;13.33;;;;;;;-1.03;100.00;98056.81;5059877;28;20205;-68
2023/02/11 05:52:28;;;;;;;43.73;16.10;;;;;;;-1.09;100.00;98045.00;5059921;28;20230;-67
2023/02/11 05:54:54;;;;;;;35.50;13.60;;;;;;;-1.06;100.00;98055.22;5059086;28;20211;-67
2023/02/11 05:57:21;;;;;;;41.13;14.57;;;;;;;-1.05;100.00;98054.31;5059105;28;20210;-67
2023/02/11 05:59:47;;;;;;;34.73;12.37;;;;;;;-1.08;100.00;98067.38;5059653;28;20238;-67
2023/02/11 06:02:13;;;;;;;37.77;13.17;;;;;;;-1.06;100.00;98072.47;5059586;28;20216;-67
2023/02/11 06:04:40;;;;;;;37.67;15.30;;;;;;;-1.13;100.00;98060.72;5058741;28;20197;-67
2023/02/11 06:07:08;;;;;;;37.37;13.70;;;;;;;-1.00;100.00;98072.22;5059402;28;20649;-67
2023/02/11 06:09:34;;;;;;;46.60;16.53;;;;;;;-1.04;100.00;98074.09;5059831;28;20578;-67
2023/02/11 06:12:01;;;;;;;40.20;14.67;;;;;;;-1.08;100.00;98075.13;5058886;28;20228;-67
2023/02/11 06:14:27;;;;;;;35.97;12.63;;;;;;;-1.11;100.00;98077.00;5058862;28;20561;-67
2023/02/11 06:16:53;;;;;;;30.10;13.73;;;;;;;-1.04;100.00;98068.91;5059156;28;20222;-67
2023/02/11 06:19:20;;;;;;;35.07;13.43;;;;;;;-0.99;100.00;98066.16;5059139;28;20208;-67
2023/02/11 06:21:46;;;;;;;45.27;13.83;;;;;;;-0.98;100.00;98066.09;5059145;28;20235;-68
2023/02/11 06:24:14;;;;;;;35.23;13.27;;;;;;;-0.85;100.00;98066.41;5058786;28;20673;-68
2023/02/11 06:26:40;;;;;;;39.90;13.73;;;;;;;-0.88;100.00;98064.81;5058404;28;20212;-67
2023/02/11 06:29:07;;;;;;;39.20;13.80;;;;;;;-0.88;100.00;98058.78;5059186;28;20197;-68
2023/02/11 06:31:36;;;;;;;34.10;13.53;;;;;;;-0.71;100.00;98067.53;5058432;28;20253;-68
2023/02/11 06:34:03;;;;;;;37.30;13.63;;;;;;;-0.69;100.00;98070.88;5058703;28;20214;-69
2023/02/11 06:36:30;;;;;;;30.87;12.33;;;;;;;-0.76;100.00;98059.09;5059090;28;20291;-68
2023/02/11 06:38:57;;;;;;;41.43;14.90;;;;;;;-0.79;100.00;98059.25;5059431;28;20309;-69
2023/02/11 06:41:24;;;;;;;55.17;17.30;;;;;;;-0.59;100.00;98069.56;5059085;28;20729;-69
2023/02/11 06:43:53;;;;;;;49.57;18.13;;;;;;;-0.67;100.00;98071.66;5060440;28;20204;-69
2023/02/11 06:46:19;;;;;;;38.87;15.30;;;;;;;-0.73;100.00;98082.25;5063559;28;20201;-69
2023/02/11 06:48:46;;;;;;;43.00;14.33;;;;;;;-0.63;100.00;98086.16;5059430;28;20212;-69
2023/02/11 06:51:14;;;;;;;45.67;17.33;;;;;;;-0.54;100.00;98080.56;5058488;28;20229;-69
2023/02/11 06:53:43;;;;;;;51.23;18.13;;;;;;;-0.50;100.00;98085.56;5057809;28;20211;-69
2023/02/11 06:56:12;;;;;;;54.10;19.30;;;;;;;-0.60;100.00;98091.19;5058635;28;20208;-69
2023/02/11 06:58:40;;;;;;;46.03;17.23;;;;;;;-0.43;100.00;98102.50;5058581;28;20200;-69
2023/02/11 07:01:08;;;;;;;51.90;17.10;;;;;;;-0.42;100.00;98099.03;5058612;28;20216;-69
2023/02/11 07:03:36;;;;;;;69.77;21.57;;;;;;;-0.40;100.00;98097.19;5058529;28;21290;-69
2023/02/11 07:06:02;;;;;;;68.13;24.30;;;;;;;-0.38;100.00;98095.41;5058485;28;20212;-69
2023/02/11 07:08:29;;;;;;;41.70;15.90;;;;;;;-0.37;100.00;98093.63;5057770;28;20684;-68
2023/02/11 07:10:55;;;;;;;39.90;15.80;;;;;;;-0.38;100.00;98091.94;5058351;28;20227;-69
2023/02/11 07:13:21;;;;;;;51.13;18.87;;;;;;;-0.30;100.00;98087.28;5058994;28;20209;-69
2023/02/11 07:15:49;;;;;;;63.50;20.93;;;;;;;-0.20;100.00;98086.00;5057122;28;20208;-69
2023/02/11 07:18:16;;;;;;;47.83;16.20;;;;;;;-0.33;100.00;98084.81;5055073;28;20680;-69
2023/02/11 07:20:43;;;;;;;98.07;32.20;;;;;;;-0.26;100.00;98074.13;5055966;28;20228;-69
2023/02/11 07:23:09;;;;;;;62.30;23.77;;;;;;;-0.11;100.00;98072.63;5057139;28;20201;-69
2023/02/11 07:25:36;;;;;;;89.27;26.50;;;;;;;-0.34;100.00;98093.53;5055927;28;20673;-69
2023/02/11 07:28:03;;;;;;;64.83;21.93;;;;;;;-0.06;100.00;98093.97;5057489;28;20207;-69
2023/02/11 07:30:30;;;;;;;56.23;20.10;;;;;;;0.01;100.00;98081.53;5057583;28;20601;-69
2023/02/11 07:32:58;;;;;;;54.77;19.87;;;;;;;0.03;100.00;98064.13;5056597;28;20240;-69
2023/02/11 07:35:24;;;;;;;60.20;19.20;;;;;;;-0.04;100.00;98076.59;5056690;28;20213;-68
2023/02/11 07:37:50;;;;;;;53.50;18.20;;;;;;;0.19;100.00;98085.00;5057135;28;20211;-69
2023/02/11 07:40:17;;;;;;;48.47;16.43;;;;;;;0.17;100.00;98074.72;5056712;28;20214;-69
2023/02/11 07:42:44;;;;;;;44.90;15.93;;;;;;;0.30;100.00;98083.63;5055475;28;20196;-69
2023/02/11 07:45:11;;;;;;;48.17;16.60;;;;;;;0.38;99.22;98071.16;5057823;28;20207;-69
2023/02/11 07:47:37;;;;;;;53.20;16.53;;;;;;;0.53;98.50;98073.00;5057217;28;20747;-69
2023/02/11 07:50:06;;;;;;;62.13;20.63;;;;;;;0.65;98.92;98070.69;5056017;28;20205;-69
2023/02/11 07:52:33;;;;;;;61.13;18.93;;;;;;;0.62;97.98;98059.59;5057079;28;21354;-69
2023/02/11 07:54:59;;;;;;;41.73;15.80;;;;;;;0.72;97.92;98050.47;5055843;28;20200;-69
2023/02/11 07:57:25;;;;;;;40.97;14.97;;;;;;;0.65;97.82;98054.28;5056238;28;20200;-69
2023/02/11 07:59:53;;;;;;;39.83;13.57;;;;;;;0.73;98.63;98054.75;5057459;28;20200;-69
2023/02/11 08:02:19;;;;;;;46.63;17.63;;;;;;;0.89;97.39;98055.69;5057265;28;21134;-69
2023/02/11 08:04:46;;;;;;;36.57;15.13;;;;;;;0.58;98.00;98055.47;5055990;28;20211;-69
2023/02/11 08:07:16;;;;;;;40.67;16.10;;;;;;;0.72;98.59;98053.06;5056829;28;20236;-69
2023/02/11 08:09:42;;;;;;;31.37;13.43;;;;;;;0.71;98.69;98062.63;5057321;28;20208;-69
2023/02/11 08:12:09;;;;;;;36.73;13.13;;;;;;;0.82;99.01;98088.88;5056731;28;20239;-69
2023/02/11 08:14:36;;;;;;;40.70;14.57;;;;;;;0.81;98.26;98101.94;5055940;28;20211;-68
2023/02/11 08:17:03;;;;;;;41.07;14.93;;;;;;;1.04;98.26;98099.06;5057247;28;20204;-69
2023/02/11 08:19:30;;;;;;;48.47;18.20;;;;;;;1.12;96.95;98102.13;5056362;28;20201;-69
2023/02/11 08:21:57;;;;;;;47.00;15.93;;;;;;;1.20;96.84;98108.63;5056426;28;20224;-69
2023/02/11 08:24:25;;;;;;;44.60;16.13;;;;;;;1.13;96.91;98085.63;5056321;28;20200;-69
2023/02/11 08:26:51;;;;;;;34.97;14.00;;;;;;;1.02;97.65;98080.13;5056327;28;20204;-69
2023/02/11 08:29:17;;;;;;;45.80;15.40;;;;;;;1.38;96.55;98067.00;5056850;28;20211;-69
2023/02/11 08:31:46;;;;;;;38.57;14.47;;;;;;;1.24;96.53;98056.47;5056935;28;20252;-69
2023/02/11 08:34:17;;;;;;;39.63;15.77;;;;;;;1.40;96.17;98070.38;5055895;28;20211;-69
2023/02/11 08:36:43;;;;;;;39.43;14.63;;;;;;;1.36;95.90;98087.03;5056194;28;20205;-69
2023/02/11 08:39:14;;;;;;;35.57;14.60;;;;;;;1.41;95.53;98087.63;5054799;28;20642;-69
2023/02/11 08:41:44;;;;;;;44.00;15.40;;;;;;;1.33;95.90;98092.34;5055740;28;20220;-69
2023/02/11 08:44:11;;;;;;;45.80;16.27;;;;;;;1.41;96.00;98100.63;5054907;28;20200;-69
2023/02/11 08:46:37;;;;;;;38.27;14.63;;;;;;;1.59;95.02;98107.50;5056678;28;20228;-69
2023/02/11 08:49:03;;;;;;;41.43;15.70;;;;;;;1.74;95.00;98103.25;5056686;28;20212;-69
2023/02/11 08:51:30;;;;;;;49.27;15.60;;;;;;;1.87;94.81;98099.94;5055963;28;20216;-70
2023/02/11 08:53:57;;;;;;;45.70;18.43;;;;;;;2.04;94.45;98094.72;5055321;28;20339;-69
2023/02/11 08:56:24;;;;;;;51.13;20.03;;;;;;;2.09;93.97;98113.50;5057376;28;20272;-70
2023/02/11 08:58:53;;;;;;;42.50;15.70;;;;;;;2.18;92.47;98107.84;5054776;28;20209;-69
2023/02/11 09:01:21;;;;;;;47.10;16.33;;;;;;;2.43;92.23;98099.47;5055502;28;20217;-69
2023/02/11 09:03:48;;;;;;;48.03;17.23;;;;;;;2.61;91.04;98097.59;5055887;28;20211;-69
2023/02/11 09:06:16;;;;;;;49.97;17.30;;;;;;;2.61;90.81;98084.59;5056374;28;20208;-68
2023/02/11 09:08:45;;;;;;;39.53;15.87;;;;;;;2.78;90.40;98072.31;5056335;28;20215;-69
2023/02/11 09:11:13;;;;;;;30.33;12.90;;;;;;;2.61;90.10;98069.84;5055067;28;20221;-69
2023/02/11 09:13:40;;;;;;;35.30;12.13;;;;;;;2.73;88.72;98066.53;5054784;28;20259;-69
2023/02/11 09:16:09;;;;;;;46.43;15.67;;;;;;;3.05;89.05;98062.97;5055672;28;20217;-69
2023/02/11 09:18:35;;;;;;;28.23;11.17;;;;;;;3.04;87.23;98071.69;5056289;28;20198;-69
2023/02/11 09:21:03;;;;;;;38.40;14.30;;;;;;;2.91;87.07;98070.72;5055865;28;21033;-69
2023/02/11 09:23:29;;;;;;;39.17;15.13;;;;;;;2.70;88.09;98071.94;5055455;28;20230;-69
2023/02/11 09:25:56;;;;;;;38.47;14.73;;;;;;;2.65;89.08;98073.94;5055104;28;20237;-69
2023/02/11 09:28:22;;;;;;;39.77;13.27;;;;;;;2.76;88.35;98069.00;5056005;28;20200;-69
2023/02/11 09:30:49;;;;;;;42.60;15.90;;;;;;;2.93;89.06;98063.66;5055516;28;20225;-69
2023/02/11 09:33:16;;;;;;;47.70;18.77;;;;;;;3.22;89.09;98062.81;5056158;28;20249;-69
2023/02/11 09:35:43;;;;;;;46.27;17.97;;;;;;;3.18;87.49;98066.53;5055445;28;20731;-68
2023/02/11 09:38:09;;;;;;;47.00;16.90;;;;;;;3.24;86.46;98060.97;5054994;28;20218;-69
2023/02/11 09:40:36;;;;;;;51.87;16.33;;;;;;;3.47;86.06;98063.09;5055708;28;20231;-69
2023/02/11 09:43:08;;;;;;;37.03;15.40;;;;;;;3.40;86.73;98059.16;5055135;28;20207;-69
2023/02/11 09:45:35;;;;;;;39.60;14.13;;;;;;;3.05;86.76;98055.16;5055204;28;20311;-69
2023/02/11 09:48:05;;;;;;;46.10;16.43;;;;;;;3.23;87.29;98041.91;5057390;28;20206;-71
2023/02/11 09:50:35;;;;;;;52.23;17.23;;;;;;;3.30;87.24;98031.97;5057605;28;20215;-69
2023/02/11 09:53:04;;;;;;;40.37;15.83;;;;;;;3.56;86.07;98041.69;5056818;28;20224;-69
2023/02/11 09:55:36;;;;;;;44.33;15.80;;;;;;;3.56;87.11;98037.31;5056636;28;20207;-69
2023/02/11 09:58:07;;;;;;;35.23;12.77;;;;;;;3.57;86.60;98039.00;5055709;28;20684;-69
2023/02/11 10:00:38;;;;;;;45.20;16.30;;;;;;;3.62;86.76;98042.16;5057662;28;20213;-69
2023/02/11 10:03:21;;;;;;;34.77;13.37;;;;;;;3.57;87.05;98032.97;5056119;28;20208;-69
2023/02/11 10:06:08;;;;;;;34.03;14.23;;;;;;;3.51;86.92;98039.34;5056830;28;20603;-70
2023/02/11 10:08:45;;;;;;;44.17;16.50;;;;;;;3.69;87.04;98046.94;5060295;28;20603;-69
2023/02/11 10:11:23;;;;;;;38.63;13.40;;;;;;;3.52;87.72;98048.03;5059280;28;20223;-68
2023/02/11 10:13:58;;;;;;;50.50;17.33;;;;;;;3.72;87.71;98031.09;5058654;28;20223;-69
2023/02/11 10:16:38;;;;;;;44.77;17.97;;;;;;;3.98;87.29;98024.31;5059217;28;20203;-69
2023/02/11 10:19:19;;;;;;;42.33;15.27;;;;;;;3.92;87.96;98025.53;5058852;28;20711;-69
2023/02/11 10:21:57;;;;;;;38.90;16.97;;;;;;;3.77;88.54;98026.44;5059307;28;20223;-69
2023/02/11 10:24:27;;;;;;;38.93;13.57;;;;;;;3.78;87.94;98030.72;5058565;28;20200;-69
2023/02/11 10:26:53;;;;;;;39.50;15.17;;;;;;;3.84;87.73;98032.94;5058584;28;20231;-68
2023/02/11 10:29:35;;;;;;;47.37;15.63;;;;;;;4.30;85.72;98032.66;5058492;28;20697;-69
2023/02/11 10:32:06;;;;;;;45.33;16.33;;;;;;;4.80;84.43;98030.28;5058343;28;20235;-70
2023/02/11 10:34:33;;;;;;;32.43;12.37;;;;;;;4.72;81.97;98029.09;5057820;28;20196;-69
2023/02/11 10:37:01;;;;;;;34.40;13.07;;;;;;;4.74;82.14;98022.00;5058115;28;20211;-69
2023/02/11 10:39:28;;;;;;;36.90;14.03;;;;;;;4.65;83.08;98025.22;5057485;28;20683;-70
2023/02/11 10:41:59;;;;;;;45.17;17.47;;;;;;;5.09;81.56;98027.47;5058515;28;20230;-69
2023/02/11 10:44:29;;;;;;;45.60;16.53;;;;;;;5.04;81.77;98021.69;5058111;28;20231;-69
2023/02/11 10:46:57;;;;;;;41.27;15.20;;;;;;;5.26;80.96;98021.94;5058098;28;20210;-70
2023/02/11 10:49:37;;;;;;;45.20;16.63;;;;;;;5.24;80.89;98023.00;5058453;28;20200;-69
2023/02/11 10:52:18;;;;;;;36.80;15.10;;;;;;;4.90;82.11;98015.66;5057960;28;20826;-70
2023/02/11 10:54:56;;;;;;;44.87;16.07;;;;;;;4.81;82.73;98015.44;5057030;28;20214;-69
2023/02/11 10:57:27;;;;;;;36.27;13.73;;;;;;;4.64;82.52;98002.66;5058419;28;20211;-69
2023/02/11 10:59:58;;;;;;;36.30;15.50;;;;;;;5.04;82.31;97995.56;5057548;28;20216;-69
2023/02/11 11:02:30;;;;;;;37.23;12.97;;;;;;;5.22;80.81;97999.56;5057969;28;20238;-69
2023/02/11 11:04:59;;;;;;;38.33;14.93;;;;;;;5.38;80.65;97989.75;5057460;28;20228;-69
2023/02/11 11:07:29;;;;;;;27.67;11.30;;;;;;;5.50;79.29;97987.16;5058366;28;20219;-70
2023/02/11 11:09:58;;;;;;;36.03;15.23;;;;;;;5.59;79.10;97985.69;5056825;28;20197;-69
2023/02/11 11:12:33;;;;;;;40.33;14.27;;;;;;;5.43;79.57;97993.75;5057311;28;20223;-69
2023/02/11 11:15:02;;;;;;;45.93;16.53;;;;;;;5.26;80.49;97990.59;5055669;28;21086;-69
2023/02/11 11:17:29;;;;;;;26.17;11.67;;;;;;;5.05;81.37;97997.25;5057582;28;20203;-70
2023/02/11 11:20:14;;;;;;;31.27;12.53;;;;;;;5.36;80.84;97991.66;5057580;28;20672;-69
2023/02/11 11:22:42;;;;;;;34.13;13.57;;;;;;;5.52;80.43;97993.13;5058414;28;20231;-69
2023/02/11 11:25:21;;;;;;;36.93;14.30;;;;;;;5.74;79.28;97989.88;5058121;28;20212;-69
2023/02/11 11:27:49;;;;;;;31.97;12.40;;;;;;;5.79;78.06;97982.56;5056742;28;20205;-69
2023/02/11 11:30:17;;;;;;;19.57;8.50;;;;;;;5.99;78.08;97968.97;5057620;28;20201;-69